Provincetown III — WDB8185 — position and weather

sailwx.info

Track history (hours):
 
Tides and Currents Weather Stations Pressure Air Temp Water Temp Dewpoint Dewpoint Depression Visibility Wind Speed Wind Dir Waves Ship Positions

Provincetown III

Owner: MYSTIC FERRY LEASING LLC, BOSTON, MA. More information available from US FCC via Universal Licensing System and Coast Guard Vessel Documentation Center.

Last reported at 2016-Jun-28 01:12 UTC. Time now 2016-Jun-28 07:58 UTC.
Position N 42°21' W 071°02'.

Length 30 m; draft 2 m.

Type: Passenger vessel. MMSI: 366954420.

Date/timePositionNaut miles runAvg speedWind from/ knotsBaromVisibWave heightAir tempDewpointWater temp
2016-Jun-28 01:12N 42°21' W 071°02'1827.6
2016-Jun-28 00:33N 42°14' W 070°40'4 1.5
2016-Jun-27 22:03N 42°16' W 070°45'1427.9
2016-Jun-27 21:34N 42°21' W 071°02'4 3.5
2016-Jun-27 20:34N 42°20' W 070°58'9 3.1
2016-Jun-27 17:33N 42°17' W 070°46'1312.9
2016-Jun-27 16:33N 42°21' W 071°02'0 0.0
2016-Jun-26 20:28N 42°21' W 071°03'2325.7
2016-Jun-26 19:33N 42°11' W 070°34'1915.7
2016-Jun-26 18:21N 42°03' W 070°11'1819.4
2016-Jun-26 17:24N 42°11' W 070°33'2427.9
2016-Jun-26 16:33N 42°21' W 071°02'3 0.1
2016-Jun-25 16:34N 42°20' W 070°58'2929.2
2016-Jun-25 15:34N 42°05' W 070°24'2 0.8
2016-Jun-25 13:30N 42°06' W 070°22'2728.6
2016-Jun-25 12:34N 42°19' W 070°53'7 0.6
2016-Jun-25 01:34N 42°21' W 071°02'7 6.7
2016-Jun-25 00:34N 42°19' W 070°54'2424.4
2016-Jun-24 23:34N 42°07' W 070°25'17 8.5
2016-Jun-24 21:34N 42°16' W 070°44'1414.2
2016-Jun-24 20:34N 42°21' W 071°02'1818.4
2016-Jun-24 19:34N 42°14' W 070°40'2524.5
2016-Jun-24 18:33N 42°01' W 070°11'1413.6
2016-Jun-24 17:32N 42°08' W 070°27'2728.1
2016-Jun-24 16:33N 42°21' W 071°00'  
2016-Jun-19 20:24N 42°21' W 071°02'1921.8
2016-Jun-19 19:33N 42°14' W 070°39'3 1.3
2016-Jun-19 17:04N 42°12' W 070°36'1528.5
2016-Jun-19 16:34N 42°19' W 070°53'7 0.3
2016-Jun-18 16:16N 42°21' W 071°03'2025.5
2016-Jun-18 15:29N 42°13' W 070°38'2222.7
2016-Jun-18 14:30N 42°03' W 070°11'2520.0
2016-Jun-18 13:13N 42°15' W 070°41'1725.4
2016-Jun-18 12:33N 42°21' W 071°02'0 0.0
2016-Jun-18 01:17N 42°21' W 071°02'  
Track history (hours):
 
Tides and Currents Weather Stations Pressure Air Temp Water Temp Dewpoint Dewpoint Depression Visibility Wind Speed Wind Dir Waves Ship Positions

Provincetown III

Owner: MYSTIC FERRY LEASING LLC, BOSTON, MA. More information available from US FCC via Universal Licensing System and Coast Guard Vessel Documentation Center.

Last reported at 2016-Jun-28 01:12 UTC. Time now 2016-Jun-28 07:58 UTC.
Position N 42°21' W 071°02'.

Length 30 m; draft 2 m.

Type: Passenger vessel. MMSI: 366954420.

Date/timePositionNaut miles runAvg speedWind from/ knotsBaromVisibWave heightAir tempDewpointWater temp
2016-Jun-28 01:12N 42°21' W 071°02'1827.6
2016-Jun-28 00:33N 42°14' W 070°40'4 1.5
2016-Jun-27 22:03N 42°16' W 070°45'1427.9
2016-Jun-27 21:34N 42°21' W 071°02'4 3.5
2016-Jun-27 20:34N 42°20' W 070°58'9 3.1
2016-Jun-27 17:33N 42°17' W 070°46'1312.9
2016-Jun-27 16:33N 42°21' W 071°02'0 0.0
2016-Jun-26 20:28N 42°21' W 071°03'2325.7
2016-Jun-26 19:33N 42°11' W 070°34'1915.7
2016-Jun-26 18:21N 42°03' W 070°11'1819.4
2016-Jun-26 17:24N 42°11' W 070°33'2427.9
2016-Jun-26 16:33N 42°21' W 071°02'3 0.1
2016-Jun-25 16:34N 42°20' W 070°58'2929.2
2016-Jun-25 15:34N 42°05' W 070°24'2 0.8
2016-Jun-25 13:30N 42°06' W 070°22'2728.6
2016-Jun-25 12:34N 42°19' W 070°53'7 0.6
2016-Jun-25 01:34N 42°21' W 071°02'7 6.7
2016-Jun-25 00:34N 42°19' W 070°54'2424.4
2016-Jun-24 23:34N 42°07' W 070°25'17 8.5
2016-Jun-24 21:34N 42°16' W 070°44'1414.2
2016-Jun-24 20:34N 42°21' W 071°02'1818.4
2016-Jun-24 19:34N 42°14' W 070°40'2524.5
2016-Jun-24 18:33N 42°01' W 070°11'1413.6
2016-Jun-24 17:32N 42°08' W 070°27'2728.1
2016-Jun-24 16:33N 42°21' W 071°00'  
2016-Jun-19 20:24N 42°21' W 071°02'1921.8
2016-Jun-19 19:33N 42°14' W 070°39'3 1.3
2016-Jun-19 17:04N 42°12' W 070°36'1528.5
2016-Jun-19 16:34N 42°19' W 070°53'7 0.3
2016-Jun-18 16:16N 42°21' W 071°03'2025.5
2016-Jun-18 15:29N 42°13' W 070°38'2222.7
2016-Jun-18 14:30N 42°03' W 070°11'2520.0
2016-Jun-18 13:13N 42°15' W 070°41'1725.4
2016-Jun-18 12:33N 42°21' W 071°02'0 0.0
2016-Jun-18 01:17N 42°21' W 071°02'  

Dump ship's entire track history